Time;durP1;ratioP1;P1;durP2;ratioP2;P2;SDS_P1;SDS_P2;PMS_P1;PMS_P2;Temp;Humidity;BMP_temperature;BMP_pressure;BME280_temperature;BME280_humidity;BME280_pressure;Samples;Min_cycle;Max_cycle;Signal;HPM_P1;HPM_P2
2022/01/27 00:05:17;;;;;;;14.93;8.40;;;;;;;0.13;68.25;95920.41;4986492;28;20053;-68
2022/01/27 00:07:44;;;;;;;13.25;8.65;;;;;;;0.24;67.95;95926.25;4985864;28;20588;-70
2022/01/27 00:12:36;;;;;;;10.85;6.93;;;;;;;0.10;67.72;95910.28;4985832;28;20499;-70
2022/01/27 00:15:13;;;;;;;12.93;7.30;;;;;;;0.19;68.01;95920.38;4986073;28;20038;-68
2022/01/27 00:17:47;;;;;;;12.38;7.50;;;;;;;0.26;67.81;95916.09;4986796;28;20110;-71
2022/01/27 00:20:14;;;;;;;13.52;7.55;;;;;;;0.19;68.22;95912.75;4987464;28;20038;-66
2022/01/27 00:22:42;;;;;;;10.80;6.10;;;;;;;0.28;67.51;95919.44;5017159;28;20047;-68
2022/01/27 00:25:08;;;;;;;13.65;8.70;;;;;;;-0.04;67.63;95880.81;5012649;28;20033;-68
2022/01/27 00:27:34;;;;;;;14.43;8.35;;;;;;;0.23;68.21;95916.09;5028880;28;20084;-67
2022/01/27 00:30:03;;;;;;;11.57;6.90;;;;;;;0.25;67.49;95922.03;5028775;28;20061;-67
2022/01/27 00:32:29;;;;;;;12.73;7.80;;;;;;;0.24;68.19;95915.25;5028759;28;20034;-68
2022/01/27 00:34:55;;;;;;;16.90;9.38;;;;;;;-0.13;67.59;95857.22;5028977;28;20033;-68
2022/01/27 00:37:20;;;;;;;13.10;6.75;;;;;;;0.27;67.48;95912.72;5028489;28;20720;-68
2022/01/27 00:39:46;;;;;;;13.05;8.82;;;;;;;0.25;67.66;95910.19;5034406;28;20036;-73
2022/01/27 00:42:11;;;;;;;15.68;7.93;;;;;;;0.22;67.82;95904.28;5071127;28;20032;-69
2022/01/27 00:44:37;;;;;;;12.73;7.53;;;;;;;0.00;68.37;95879.13;5071164;28;20060;-70
2022/01/27 00:47:02;;;;;;;11.55;7.65;;;;;;;0.32;67.32;95913.50;5070779;28;20045;-65
2022/01/27 00:49:28;;;;;;;11.52;6.90;;;;;;;0.43;67.06;95913.44;5070689;28;20039;-67
2022/01/27 00:51:54;;;;;;;11.18;7.55;;;;;;;0.12;66.42;95862.94;5070912;28;20084;-68
2022/01/27 00:54:23;;;;;;;13.05;8.43;;;;;;;0.44;66.83;95915.09;5071011;28;20051;-69
2022/01/27 00:56:56;;;;;;;11.02;7.22;;;;;;;0.52;66.58;95910.78;5070919;28;20036;-71
2022/01/27 01:01:57;;;;;;;9.75;5.82;;;;;;;0.14;66.96;95859.53;5070563;28;20100;-72
2022/01/27 01:04:28;;;;;;;9.52;5.53;;;;;;;0.47;66.44;95900.66;5070719;28;20025;-68
2022/01/27 01:06:54;;;;;;;10.35;6.20;;;;;;;-0.08;66.60;95831.00;5070968;28;20036;-70
2022/01/27 01:14:55;;;;;;;7.85;4.88;;;;;;;0.04;66.29;95835.09;5070560;28;20086;-67
2022/01/27 01:30:49;;;;;;;7.43;5.07;;;;;;;0.43;66.06;95893.97;5071333;28;20121;-70
2022/01/27 01:33:20;;;;;;;9.88;5.28;;;;;;;0.24;66.27;95878.03;5070719;28;20025;-67
2022/01/27 01:36:02;;;;;;;6.75;4.05;;;;;;;0.14;66.03;95871.38;5070528;28;20079;-72
2022/01/27 01:38:30;;;;;;;7.10;4.65;;;;;;;0.23;66.28;95885.66;5070069;28;20025;-70
2022/01/27 01:40:56;;;;;;;8.85;5.72;;;;;;;-0.15;66.63;95831.88;5070166;28;20036;-73
2022/01/27 01:43:22;;;;;;;6.22;4.45;;;;;;;0.12;66.96;95873.09;5070307;28;20027;-71
2022/01/27 01:45:49;;;;;;;7.50;3.78;;;;;;;0.06;66.24;95852.84;5069134;28;20072;-74
2022/01/27 01:48:15;;;;;;;6.68;4.05;;;;;;;0.18;66.41;95880.63;5069771;28;20048;-70
2022/01/27 01:50:42;;;;;;;9.75;4.78;;;;;;;-0.13;65.84;95837.81;5069736;28;20052;-70
2022/01/27 01:53:08;;;;;;;6.88;4.40;;;;;;;0.15;66.49;95884.06;5070004;28;20162;-72
2022/01/27 01:55:34;;;;;;;9.30;4.53;;;;;;;0.08;66.48;95862.16;5070021;28;20112;-74
2022/01/27 01:58:00;;;;;;;6.20;4.38;;;;;;;0.18;66.82;95861.19;5069600;28;20040;-73
2022/01/27 02:00:26;;;;;;;5.50;3.20;;;;;;;0.18;66.76;95873.03;5069725;28;20121;-69
2022/01/27 02:02:54;;;;;;;7.20;4.82;;;;;;;0.24;66.26;95872.97;5051117;28;20074;-73
2022/01/27 02:05:22;;;;;;;9.85;5.72;;;;;;;0.23;65.92;95880.59;5051759;28;20035;-78
2022/01/27 02:19:12;;;;;;;9.65;5.43;;;;;;;0.13;66.91;95850.25;5069575;28;20044;-69
2022/01/27 02:21:50;;;;;;;7.55;4.40;;;;;;;0.21;66.65;95867.09;5069423;28;20426;-73
2022/01/27 02:24:17;;;;;;;5.35;3.60;;;;;;;0.15;66.81;95852.78;5051540;28;20108;-69
2022/01/27 02:26:44;;;;;;;6.32;4.47;;;;;;;0.16;66.85;95860.38;5068953;28;20078;-72
2022/01/27 02:29:10;;;;;;;6.40;4.25;;;;;;;0.21;67.05;95854.41;5068920;28;20035;-72
2022/01/27 02:31:36;;;;;;;6.22;4.05;;;;;;;0.23;66.80;95857.75;5069001;28;20044;-75
2022/01/27 02:34:01;;;;;;;5.57;3.67;;;;;;;0.32;66.59;95860.22;5069063;28;20024;-74
2022/01/27 02:36:27;;;;;;;4.80;2.92;;;;;;;0.40;66.41;95855.09;5069256;28;20025;-70
2022/01/27 02:38:54;;;;;;;6.20;3.63;;;;;;;0.26;66.43;95857.75;5068656;28;20036;-73
2022/01/27 02:41:22;;;;;;;6.93;3.72;;;;;;;0.12;66.72;95827.44;5068975;28;20036;-71
2022/01/27 02:43:48;;;;;;;5.10;2.58;;;;;;;0.17;67.55;95840.91;5068403;28;20020;-69
2022/01/27 02:46:24;;;;;;;5.40;2.80;;;;;;;0.24;67.18;95860.28;5049829;28;20567;-73
2022/01/27 02:48:50;;;;;;;6.72;4.07;;;;;;;0.23;68.08;95857.75;5068327;28;20040;-74
2022/01/27 02:51:15;;;;;;;5.63;3.88;;;;;;;0.23;68.05;95866.22;5050949;28;20028;-68
2022/01/27 02:53:41;;;;;;;5.50;3.92;;;;;;;0.38;67.44;95866.94;5068803;28;20603;-70
2022/01/27 02:56:06;;;;;;;6.82;3.95;;;;;;;0.35;67.66;95855.13;5068797;28;20029;-66
2022/01/27 02:58:32;;;;;;;5.97;4.55;;;;;;;0.42;67.54;95860.97;5068549;28;20031;-70
2022/01/27 03:00:57;;;;;;;6.35;4.20;;;;;;;0.41;67.59;95856.75;5068218;28;20060;-69
2022/01/27 03:03:22;;;;;;;7.60;4.43;;;;;;;0.27;67.68;95836.59;5068836;28;20044;-67
2022/01/27 03:05:48;;;;;;;7.28;4.25;;;;;;;0.33;66.89;95827.22;5068626;28;20507;-68
2022/01/27 03:08:13;;;;;;;6.32;4.47;;;;;;;0.08;67.53;95810.56;5068695;28;20033;-67
2022/01/27 03:10:44;;;;;;;7.50;4.60;;;;;;;0.21;67.04;95811.28;5068533;28;20020;-70
2022/01/27 03:13:09;;;;;;;6.07;3.83;;;;;;;0.63;66.60;95857.38;5068079;28;20423;-69
2022/01/27 03:15:35;;;;;;;6.13;4.55;;;;;;;0.62;66.19;95856.53;5068305;28;20024;-67
2022/01/27 03:18:00;;;;;;;6.30;4.22;;;;;;;0.46;67.06;95843.19;5068278;28;20020;-70
2022/01/27 03:20:33;;;;;;;5.25;3.75;;;;;;;0.62;66.91;95853.16;5068438;28;20016;-67
2022/01/27 03:23:02;;;;;;;6.55;4.57;;;;;;;0.58;66.52;95851.53;5068435;28;20131;-68
2022/01/27 03:25:28;;;;;;;7.60;3.72;;;;;;;0.34;66.75;95820.44;5067915;28;20107;-68
2022/01/27 03:27:54;;;;;;;6.03;4.40;;;;;;;0.29;66.87;95817.94;5067858;28;20036;-71
2022/01/27 03:30:19;;;;;;;5.82;4.32;;;;;;;0.51;66.89;95843.97;5068205;28;20042;-68
2022/01/27 03:32:45;;;;;;;6.65;4.05;;;;;;;0.41;66.88;95836.44;5067959;28;20514;-67
2022/01/27 03:35:11;;;;;;;7.07;4.75;;;;;;;0.48;66.97;95850.78;5068177;28;20013;-67
2022/01/27 03:37:36;;;;;;;5.55;4.10;;;;;;;0.55;67.33;95860.81;5067805;28;20801;-69
2022/01/27 03:40:03;;;;;;;6.18;4.05;;;;;;;0.68;66.37;95861.53;5068014;28;20406;-68
2022/01/27 03:42:29;;;;;;;8.07;4.53;;;;;;;0.58;66.40;95846.44;5067922;28;20103;-68
2022/01/27 03:44:54;;;;;;;6.00;4.03;;;;;;;0.70;66.26;95853.91;5067652;28;20066;-68
2022/01/27 03:47:20;;;;;;;7.63;4.68;;;;;;;0.34;66.64;95823.00;5067600;28;20483;-67
2022/01/27 03:49:45;;;;;;;5.03;3.33;;;;;;;0.61;66.19;95861.63;5067214;28;20032;-67
2022/01/27 03:52:11;;;;;;;5.10;3.80;;;;;;;0.30;66.59;95811.22;5067248;28;20029;-69
2022/01/27 03:54:36;;;;;;;6.00;4.05;;;;;;;0.54;66.74;95855.75;5067740;28;20059;-70
2022/01/27 03:57:02;;;;;;;6.07;4.38;;;;;;;0.38;66.56;95844.09;5071829;28;20028;-67
2022/01/27 03:59:27;;;;;;;5.78;3.97;;;;;;;0.50;67.03;95867.66;5071640;28;20055;-67
2022/01/27 04:01:54;;;;;;;4.38;3.13;;;;;;;0.29;66.67;95830.63;5071279;28;20050;-67
2022/01/27 04:04:20;;;;;;;5.88;4.00;;;;;;;0.53;66.86;95874.41;5071842;28;20475;-66
2022/01/27 04:06:49;;;;;;;5.15;3.85;;;;;;;0.41;66.72;95855.06;5072122;28;20081;-67
2022/01/27 04:09:15;;;;;;;5.32;2.88;;;;;;;0.28;66.83;95851.81;5071924;28;20115;-67
2022/01/27 04:11:41;;;;;;;4.90;3.30;;;;;;;0.53;66.51;95874.41;5071795;28;20111;-67
2022/01/27 04:14:07;;;;;;;4.80;3.58;;;;;;;0.17;66.86;95823.16;5071396;28;20066;-66
2022/01/27 04:16:33;;;;;;;5.22;3.20;;;;;;;0.21;66.99;95839.19;5071654;28;20467;-70
2022/01/27 04:18:58;;;;;;;5.63;3.95;;;;;;;0.37;67.70;95873.72;5071837;28;20068;-68
2022/01/27 04:21:24;;;;;;;5.22;3.22;;;;;;;0.37;68.06;95881.31;5071675;28;20024;-66
2022/01/27 04:23:50;;;;;;;7.22;4.28;;;;;;;0.26;67.79;95860.28;5071576;28;20119;-67
2022/01/27 04:26:20;;;;;;;5.40;3.90;;;;;;;0.32;68.11;95873.75;5071253;28;20039;-67
2022/01/27 04:28:48;;;;;;;5.43;3.92;;;;;;;0.16;68.00;95850.22;5071532;28;20388;-67
2022/01/27 04:31:13;;;;;;;5.70;3.95;;;;;;;0.22;68.59;95878.94;5071204;28;20127;-68
2022/01/27 04:33:40;;;;;;;8.68;3.88;;;;;;;0.19;68.46;95882.31;5071650;28;20036;-67
2022/01/27 04:36:14;;;;;;;7.30;4.72;;;;;;;0.14;69.26;95881.53;5071431;28;20376;-66
2022/01/27 04:38:53;;;;;;;5.60;4.13;;;;;;;0.14;69.17;95887.44;5071132;28;20480;-66
2022/01/27 04:41:27;;;;;;;5.20;4.05;;;;;;;0.10;69.43;95880.72;5071309;28;20385;-67
2022/01/27 04:44:00;;;;;;;6.25;4.25;;;;;;;0.14;69.70;95884.06;5071110;28;20025;-67
2022/01/27 04:49:01;;;;;;;5.85;4.25;;;;;;;0.16;69.68;95883.22;5070839;28;20119;-70
2022/01/27 04:51:28;;;;;;;6.70;4.25;;;;;;;-0.03;68.63;95833.50;5071195;28;20411;-67
2022/01/27 04:54:19;;;;;;;7.78;4.80;;;;;;;0.20;69.16;95873.88;5058413;28;20029;-70
2022/01/27 04:56:44;;;;;;;6.50;3.80;;;;;;;0.25;68.82;95881.44;5031299;28;20025;-67
2022/01/27 04:59:24;;;;;;;5.95;3.58;;;;;;;0.03;69.11;95878.22;5030843;28;20044;-67
2022/01/27 05:01:56;;;;;;;6.35;4.20;;;;;;;-0.16;69.83;95847.97;5030468;28;20040;-69
2022/01/27 05:04:24;;;;;;;;;;;;;;;0.10;69.85;95892.53;5031328;28;20037;-69
2022/01/27 05:06:51;;;;;;;7.88;5.18;;;;;;;0.06;69.87;95901.88;5030135;28;20663;-69
2022/01/27 05:09:16;;;;;;;7.60;5.35;;;;;;;-0.17;70.10;95873.31;5030821;28;20035;-68
2022/01/27 05:11:55;;;;;;;8.02;5.57;;;;;;;-0.32;69.86;95842.16;5031096;28;20108;-67
2022/01/27 05:14:25;;;;;;;7.10;5.35;;;;;;;0.11;70.10;95910.28;5030303;28;20087;-69
2022/01/27 05:16:51;;;;;;;9.43;5.18;;;;;;;0.08;69.85;95891.72;5031941;28;20026;-67
2022/01/27 05:19:17;;;;;;;5.85;3.95;;;;;;;0.12;70.11;95908.59;5032626;28;20224;-68
2022/01/27 05:21:42;;;;;;;7.57;4.10;;;;;;;0.10;70.35;95917.91;5050437;28;20108;-68
2022/01/27 05:24:09;;;;;;;9.88;5.45;;;;;;;-0.01;71.12;95912.91;5050303;28;20021;-67
2022/01/27 05:26:36;;;;;;;8.88;6.03;;;;;;;-0.29;70.92;95867.47;5049825;28;20024;-67
2022/01/27 05:29:07;;;;;;;9.18;6.05;;;;;;;0.12;70.99;95911.97;5050178;28;20021;-68
2022/01/27 05:31:32;;;;;;;10.55;5.38;;;;;;;-0.01;70.26;95882.50;5032400;28;20686;-69
2022/01/27 05:33:58;;;;;;;7.70;5.55;;;;;;;0.11;70.82;95932.28;5050293;28;20044;-67
2022/01/27 05:36:34;;;;;;;7.90;5.20;;;;;;;0.09;70.93;95928.91;5050263;28;20028;-66
2022/01/27 05:39:01;;;;;;;8.27;5.38;;;;;;;0.12;71.42;95922.13;5049863;28;20028;-66
2022/01/27 05:41:27;;;;;;;8.48;5.45;;;;;;;0.00;71.65;95912.09;5049828;28;20036;-67
2022/01/27 05:43:52;;;;;;;7.93;5.60;;;;;;;-0.04;71.28;95908.69;5050144;28;20029;-65
2022/01/27 05:46:17;;;;;;;6.70;5.05;;;;;;;-0.33;70.99;95859.91;5049981;28;20052;-69
2022/01/27 05:48:43;;;;;;;9.77;6.55;;;;;;;0.04;71.79;95923.88;5049145;28;20102;-66
2022/01/27 05:51:09;;;;;;;8.52;5.97;;;;;;;0.10;71.69;95930.56;5049985;28;20040;-69
2022/01/27 05:53:36;;;;;;;8.80;6.40;;;;;;;-0.30;71.92;95875.09;5049575;28;20412;-69
2022/01/27 05:56:01;;;;;;;5.75;4.72;;;;;;;-0.11;72.04;95922.28;5049712;28;20037;-67
2022/01/27 05:58:27;;;;;;;8.10;4.93;;;;;;;-0.02;71.72;95931.50;5049796;28;20040;-66
2022/01/27 06:00:52;;;;;;;5.85;3.95;;;;;;;-0.73;72.23;95825.53;5049385;28;20496;-67
2022/01/27 06:03:18;;;;;;;8.48;5.95;;;;;;;-0.16;72.58;95921.47;5050104;28;20048;-68
2022/01/27 06:05:44;;;;;;;10.68;5.95;;;;;;;-0.17;72.76;95935.00;5049792;28;20032;-67
2022/01/27 06:08:10;;;;;;;8.27;5.78;;;;;;;-0.43;72.68;95895.44;5049642;28;20425;-66
2022/01/27 06:10:35;;;;;;;9.43;5.57;;;;;;;-0.08;73.14;95932.41;5049635;28;20047;-65
2022/01/27 06:13:01;;;;;;;7.85;4.72;;;;;;;-0.41;72.71;95908.09;5049136;28;20021;-71
2022/01/27 06:15:27;;;;;;;8.25;5.50;;;;;;;-0.13;73.04;95951.03;5049629;28;20029;-71
2022/01/27 06:17:54;;;;;;;11.82;8.13;;;;;;;-0.28;73.29;95917.34;5027277;28;20511;-68
2022/01/27 06:20:19;;;;;;;7.93;4.97;;;;;;;-0.17;72.31;95924.03;5049150;28;20407;-69
2022/01/27 06:22:45;;;;;;;11.65;7.20;;;;;;;-0.64;72.97;95860.97;5049707;28;20104;-72
2022/01/27 06:25:12;;;;;;;10.48;7.47;;;;;;;-0.09;72.80;95932.41;5049619;28;20035;-69
2022/01/27 06:27:38;;;;;;;10.35;7.60;;;;;;;-0.24;72.08;95898.72;5049854;28;20443;-71
2022/01/27 06:30:05;;;;;;;10.10;6.60;;;;;;;0.23;71.85;95956.69;5050173;28;20175;-67
2022/01/27 06:32:32;;;;;;;12.35;8.70;;;;;;;0.22;71.63;95955.03;5049361;28;20104;-71
2022/01/27 06:34:57;;;;;;;10.77;8.23;;;;;;;0.23;71.48;95941.47;5049029;28;20029;-68
2022/01/27 06:37:23;;;;;;;10.77;7.53;;;;;;;0.29;71.35;95959.19;5030865;28;20094;-69
2022/01/27 06:39:48;;;;;;;10.57;7.35;;;;;;;0.19;71.87;95968.56;5049134;28;20404;-72
2022/01/27 06:42:14;;;;;;;12.25;8.85;;;;;;;0.13;71.70;95951.72;5049272;28;20032;-69
2022/01/27 06:44:39;;;;;;;11.68;8.70;;;;;;;0.18;71.70;95962.66;5030753;28;20643;-68
2022/01/27 06:47:05;;;;;;;12.77;7.97;;;;;;;0.23;71.71;95966.84;5048901;28;20079;-68
2022/01/27 06:49:31;;;;;;;11.98;7.15;;;;;;;0.05;71.37;95915.41;5048390;28;20033;-69
2022/01/27 06:51:56;;;;;;;10.75;6.78;;;;;;;0.34;70.73;95963.41;5030995;28;20495;-70
2022/01/27 06:54:22;;;;;;;13.63;7.45;;;;;;;0.01;70.82;95900.22;5049233;28;20043;-67
2022/01/27 06:56:47;;;;;;;10.18;7.00;;;;;;;0.40;71.09;95959.97;5057184;28;20029;-68
2022/01/27 06:59:13;;;;;;;9.20;5.28;;;;;;;0.52;70.36;95962.38;5058733;28;20059;-68
2022/01/27 07:01:39;;;;;;;11.55;7.28;;;;;;;0.24;70.95;95930.50;5041105;28;20045;-68
2022/01/27 07:04:05;;;;;;;11.77;7.57;;;;;;;0.52;70.65;95961.53;5041112;28;20026;-65
2022/01/27 07:06:32;;;;;;;11.52;8.43;;;;;;;0.34;70.13;95920.25;5028868;28;20097;-68
2022/01/27 07:08:59;;;;;;;11.40;6.82;;;;;;;0.61;69.68;95960.59;5033232;28;20041;-65
2022/01/27 07:11:25;;;;;;;16.13;9.30;;;;;;;0.50;69.84;95940.41;5035269;28;20043;-67
2022/01/27 07:13:51;;;;;;;10.98;8.35;;;;;;;0.34;69.89;95914.31;5029897;28;20488;-70
2022/01/27 07:16:16;;;;;;;14.40;9.23;;;;;;;0.64;70.06;95971.59;5030782;28;20029;-68
2022/01/27 07:18:42;;;;;;;11.73;7.30;;;;;;;0.66;69.55;95963.97;5030836;28;20512;-72
2022/01/27 07:21:07;;;;;;;11.02;7.47;;;;;;;0.58;69.82;95945.44;5024725;28;20522;-70
2022/01/27 07:23:33;;;;;;;13.32;8.38;;;;;;;0.75;69.67;95971.50;5043103;28;20059;-72
2022/01/27 07:25:58;;;;;;;13.35;8.25;;;;;;;0.84;69.26;95973.13;5044462;28;20114;-69
2022/01/27 07:28:23;;;;;;;10.27;7.82;;;;;;;0.83;68.85;95964.63;5031061;28;20040;-69
2022/01/27 07:30:49;;;;;;;13.60;9.55;;;;;;;0.62;69.06;95926.75;5029931;28;20408;-71
2022/01/27 07:33:15;;;;;;;12.57;7.50;;;;;;;0.66;68.40;95910.66;5038563;28;20220;-71
2022/01/27 07:35:41;;;;;;;9.23;6.68;;;;;;;0.72;68.03;95913.13;5032434;28;20037;-70
2022/01/27 07:38:07;;;;;;;12.25;7.82;;;;;;;0.87;68.48;95960.38;5040286;28;20142;-69
2022/01/27 07:40:34;;;;;;;12.43;8.95;;;;;;;1.11;68.27;95979.59;5045166;28;20028;-70
2022/01/27 07:43:00;;;;;;;12.95;9.68;;;;;;;1.08;67.87;95951.69;5035216;28;20039;-72
2022/01/27 07:45:25;;;;;;;12.48;7.43;;;;;;;1.42;67.30;95979.25;5028973;28;20172;-70
2022/01/27 07:47:51;;;;;;;12.20;8.05;;;;;;;1.15;66.93;95947.38;5012620;28;20578;-69
2022/01/27 07:50:17;;;;;;;10.38;7.38;;;;;;;0.76;67.62;95911.41;5035670;28;20029;-64
2022/01/27 07:52:42;;;;;;;13.50;8.32;;;;;;;0.79;68.02;95912.22;5044302;28;20112;-63
2022/01/27 07:55:11;;;;;;;12.07;8.30;;;;;;;1.24;68.05;95977.78;5033456;28;20076;-63
2022/01/27 07:57:37;;;;;;;15.00;10.07;;;;;;;1.11;68.17;95951.66;5039548;28;20145;-61
2022/01/27 08:00:05;;;;;;;16.10;9.98;;;;;;;1.46;67.33;95978.38;5042513;28;20040;-62
2022/01/27 08:02:30;;;;;;;14.40;7.50;;;;;;;1.35;67.80;95987.84;5035328;28;20107;-62
2022/01/27 08:04:56;;;;;;;15.73;9.13;;;;;;;1.16;68.42;95970.22;5035800;28;20115;-64
2022/01/27 08:07:21;;;;;;;16.25;9.43;;;;;;;1.37;67.93;95973.41;5014689;28;20089;-64
2022/01/27 08:09:48;;;;;;;16.50;10.80;;;;;;;1.50;67.65;95982.56;5033238;28;20041;-64
2022/01/27 08:12:14;;;;;;;14.25;9.88;;;;;;;1.34;67.31;95955.63;5034422;28;20040;-64
2022/01/27 08:14:40;;;;;;;17.25;11.77;;;;;;;1.45;67.60;95964.81;5025668;28;20040;-64
2022/01/27 08:17:05;;;;;;;15.80;11.07;;;;;;;1.60;67.28;95978.19;5026733;28;20536;-63
2022/01/27 08:19:30;;;;;;;17.95;11.15;;;;;;;1.31;67.31;95937.88;5010763;28;20468;-64
2022/01/27 08:21:56;;;;;;;21.25;11.20;;;;;;;1.58;67.66;95982.47;5031599;28;20036;-65
2022/01/27 08:24:21;;;;;;;13.57;8.75;;;;;;;1.26;67.74;95943.00;5023876;28;20041;-64
2022/01/27 08:26:49;;;;;;;19.40;12.18;;;;;;;1.49;67.86;95973.22;5034100;28;20030;-66
2022/01/27 08:29:25;;;;;;;15.68;10.20;;;;;;;1.33;67.61;95948.88;5044291;28;20056;-64
2022/01/27 08:31:56;;;;;;;21.30;13.27;;;;;;;1.25;67.79;95954.06;5027329;28;20034;-64
2022/01/27 08:34:35;;;;;;;20.58;12.27;;;;;;;1.56;67.74;95991.78;5044267;28;20041;-64
2022/01/27 08:37:09;;;;;;;15.07;10.82;;;;;;;1.33;67.98;95987.84;5045284;28;20574;-66
2022/01/27 08:39:36;;;;;;;16.67;9.75;;;;;;;1.26;67.68;95961.66;5033143;28;20021;-62
2022/01/27 08:42:02;;;;;;;20.67;13.00;;;;;;;1.63;67.45;95989.16;5052783;28;20061;-63
2022/01/27 08:44:27;;;;;;;22.48;12.52;;;;;;;1.41;67.04;95947.94;5055115;28;20119;-65
2022/01/27 08:46:53;;;;;;;25.13;13.38;;;;;;;1.52;67.05;95975.75;5070940;28;20958;-64
2022/01/27 08:49:21;;;;;;;24.65;14.73;;;;;;;1.61;67.62;95995.16;5070166;28;20112;-65
2022/01/27 08:51:47;;;;;;;23.35;13.93;;;;;;;1.61;67.55;95992.59;5055149;28;20521;-63
2022/01/27 08:54:13;;;;;;;23.00;14.00;;;;;;;1.39;67.86;95987.75;5070779;28;20123;-61
2022/01/27 08:56:38;;;;;;;14.07;8.10;;;;;;;1.05;68.25;95964.41;5052562;28;20032;-63
2022/01/27 08:59:04;;;;;;;18.60;12.73;;;;;;;1.36;68.58;96000.53;5070529;28;20103;-62
2022/01/27 09:01:29;;;;;;;12.55;9.57;;;;;;;1.08;69.01;95972.88;5049817;28;20561;-64
2022/01/27 09:03:55;;;;;;;14.95;8.65;;;;;;;1.20;68.44;95992.22;5050594;28;20028;-63
2022/01/27 09:06:21;;;;;;;19.42;12.27;;;;;;;1.19;68.98;96000.69;5050183;28;20029;-63
2022/01/27 09:08:48;;;;;;;18.73;11.23;;;;;;;0.95;68.97;95965.38;5050607;28;20067;-62
2022/01/27 09:11:13;;;;;;;14.68;9.52;;;;;;;1.01;68.95;96013.59;5058360;28;20467;-63
2022/01/27 09:13:39;;;;;;;13.13;9.02;;;;;;;0.86;69.19;95990.00;5069533;28;20108;-61
2022/01/27 09:16:06;;;;;;;17.70;11.57;;;;;;;0.58;69.69;95978.44;5070583;28;20021;-62
2022/01/27 09:18:33;;;;;;;16.05;10.00;;;;;;;0.96;69.73;95992.47;5070612;28;20040;-62
2022/01/27 09:21:02;;;;;;;15.02;8.35;;;;;;;0.90;69.51;95988.28;5057593;28;20511;-64
2022/01/27 09:23:27;;;;;;;14.98;10.45;;;;;;;0.81;68.50;95945.22;5049323;28;20111;-63
2022/01/27 09:25:56;;;;;;;15.35;8.48;;;;;;;0.94;67.92;95951.84;5049821;28;20175;-64
2022/01/27 09:28:22;;;;;;;17.85;11.77;;;;;;;1.59;67.16;96007.00;5050484;28;20488;-64
2022/01/27 09:30:48;;;;;;;14.25;10.02;;;;;;;1.78;65.60;95972.88;5050306;28;20033;-62
2022/01/27 09:33:13;;;;;;;16.65;10.05;;;;;;;1.94;65.27;95990.50;5050017;28;20029;-62
2022/01/27 09:35:39;;;;;;;20.15;12.15;;;;;;;2.25;64.64;95983.25;5048992;28;20400;-63
2022/01/27 09:38:05;;;;;;;19.90;12.23;;;;;;;2.47;63.20;95949.81;5050278;28;20035;-62
2022/01/27 09:40:33;;;;;;;17.58;12.02;;;;;;;2.81;62.03;95978.13;5050117;28;20029;-63
2022/01/27 09:43:00;;;;;;;23.70;13.38;;;;;;;2.37;62.61;95926.22;5050159;28;20056;-63
2022/01/27 09:45:27;;;;;;;23.65;13.65;;;;;;;2.66;62.76;95969.03;5048792;28;20037;-63
2022/01/27 09:47:55;;;;;;;19.48;13.65;;;;;;;2.72;62.63;95975.72;5049736;28;20060;-62
2022/01/27 09:50:35;;;;;;;19.73;12.43;;;;;;;2.69;61.99;95946.06;5048641;28;20024;-64
2022/01/27 09:53:00;;;;;;;20.98;13.90;;;;;;;2.53;61.75;95901.34;5030487;28;20052;-62
2022/01/27 09:55:26;;;;;;;16.83;11.07;;;;;;;2.63;61.70;95973.34;5049502;28;20835;-61
2022/01/27 09:57:54;;;;;;;16.23;11.32;;;;;;;2.57;61.63;95967.47;5049014;28;20496;-63
2022/01/27 10:00:21;;;;;;;21.25;12.48;;;;;;;2.53;61.96;95944.63;5049362;28;20090;-61
2022/01/27 10:03:04;;;;;;;19.83;11.80;;;;;;;2.39;62.17;95973.72;5053117;28;20032;-62
2022/01/27 10:05:30;;;;;;;20.00;12.65;;;;;;;2.20;62.97;95978.22;5066642;28;20035;-63
2022/01/27 10:08:04;;;;;;;20.58;13.32;;;;;;;2.07;62.57;95927.56;5048199;28;20494;-63
2022/01/27 10:10:35;;;;;;;16.33;11.13;;;;;;;2.30;62.68;95966.19;5049502;28;20021;-63
2022/01/27 10:13:03;;;;;;;;;;;;;;;1.93;63.38;95961.66;5049922;28;20076;-64
2022/01/27 10:15:34;;;;;;;16.27;10.50;;;;;;;1.81;63.75;95975.38;5045064;28;19917;-65
2022/01/27 10:18:06;;;;;;;13.77;9.18;;;;;;;1.92;62.58;95967.63;5048359;28;20132;-64
2022/01/27 10:20:32;;;;;;;16.70;11.40;;;;;;;1.79;62.01;95913.53;5030029;28;20040;-64
2022/01/27 10:23:11;;;;;;;22.67;13.90;;;;;;;2.08;61.53;95927.50;5048625;28;20048;-65
2022/01/27 10:25:57;;;;;;;15.35;10.57;;;;;;;2.80;59.39;95973.03;5048384;28;20052;-63
2022/01/27 10:31:19;;;;;;;14.65;9.40;;;;;;;3.51;55.28;95913.94;5006041;28;20720;-63
2022/01/27 10:33:45;;;;;;;16.25;9.27;;;;;;;3.65;56.09;95951.88;5006456;28;20041;-62
2022/01/27 10:36:18;;;;;;;18.77;11.80;;;;;;;3.91;54.13;95884.16;5003324;28;20050;-64
2022/01/27 10:38:44;;;;;;;15.43;10.13;;;;;;;4.74;52.75;95946.00;4993467;28;20089;-62
2022/01/27 10:41:10;;;;;;;19.27;12.20;;;;;;;4.48;52.94;95949.22;4994582;28;20469;-63
2022/01/27 10:43:36;;;;;;;14.43;10.55;;;;;;;4.70;51.35;95927.34;4988490;28;20044;-63
2022/01/27 10:46:22;;;;;;;12.20;8.18;;;;;;;3.93;52.11;95874.75;4985897;28;20042;-63
2022/01/27 10:49:01;;;;;;;12.02;8.77;;;;;;;3.96;52.35;95867.03;4989991;28;20149;-62
2022/01/27 10:51:39;;;;;;;14.40;9.13;;;;;;;4.64;52.07;95936.88;5001761;28;20034;-62
2022/01/27 10:54:06;;;;;;;15.23;9.73;;;;;;;4.17;52.07;95884.38;4997203;28;20079;-62
2022/01/27 10:56:38;;;;;;;11.07;7.45;;;;;;;3.73;53.90;95928.78;5002536;28;20526;-62
2022/01/27 10:59:10;;;;;;;16.77;9.63;;;;;;;3.33;54.50;95864.16;5005769;28;20059;-63
2022/01/27 11:01:44;;;;;;;9.77;6.72;;;;;;;3.74;53.96;95936.41;4992140;28;20092;-64
2022/01/27 11:04:12;;;;;;;14.93;10.27;;;;;;;4.05;53.34;95921.25;4995200;28;20038;-63
2022/01/27 11:06:53;;;;;;;13.25;10.55;;;;;;;7.29;45.84;95906.69;4993123;28;20026;-62
2022/01/27 11:09:20;;;;;;;10.20;7.07;;;;;;;5.25;47.56;95881.59;5009947;28;20119;-62
2022/01/27 11:11:48;;;;;;;12.90;8.80;;;;;;;4.72;49.47;95854.06;5010063;28;20058;-62
2022/01/27 11:14:14;;;;;;;11.38;7.80;;;;;;;5.42;48.34;95898.16;5012078;28;20033;-65
2022/01/27 11:16:43;;;;;;;11.60;8.00;;;;;;;7.43;42.77;95823.25;5012793;28;20021;-65
2022/01/27 11:22:01;;;;;;;9.50;6.97;;;;;;;6.41;44.21;95889.19;5034820;28;20093;-62
2022/01/27 11:24:43;;;;;;;11.05;7.90;;;;;;;6.82;43.61;95860.47;5038661;28;20030;-61
2022/01/27 11:27:09;;;;;;;10.70;7.60;;;;;;;7.81;41.39;95893.69;5027567;28;20040;-64
2022/01/27 11:29:46;;;;;;;12.32;7.82;;;;;;;7.74;40.58;95899.97;5025725;28;20021;-62
2022/01/27 11:32:27;;;;;;;8.98;6.40;;;;;;;6.94;42.03;95892.56;5008451;28;20026;-60
2022/01/27 11:34:55;;;;;;;8.90;5.97;;;;;;;5.90;43.73;95895.03;5008658;28;20036;-61
2022/01/27 11:37:37;;;;;;;9.27;6.55;;;;;;;5.97;44.09;95896.56;5026827;28;20025;-62
2022/01/27 11:40:08;;;;;;;9.95;6.85;;;;;;;6.10;43.92;95885.94;5031655;28;20561;-63
2022/01/27 11:42:40;;;;;;;12.40;7.82;;;;;;;7.16;42.39;95879.81;5008070;28;20020;-60
2022/01/27 11:45:21;;;;;;;8.43;6.13;;;;;;;6.27;42.78;95881.13;5006854;28;20116;-63
2022/01/27 11:47:56;;;;;;;9.80;6.20;;;;;;;5.67;43.89;95835.16;5017467;28;20125;-63
2022/01/27 11:50:50;;;;;;;11.73;8.25;;;;;;;5.75;44.85;95885.25;5036320;28;20025;-61
2022/01/27 11:53:30;;;;;;;11.23;7.25;;;;;;;5.83;44.50;95829.56;5047510;28;20122;-64
2022/01/27 11:55:57;;;;;;;11.93;8.40;;;;;;;6.67;41.82;95890.03;5047304;28;20137;-61
2022/01/27 11:58:24;;;;;;;10.85;7.13;;;;;;;6.35;42.82;95848.41;5046419;28;20466;-62
2022/01/27 12:01:31;;;;;;;13.60;8.63;;;;;;;6.43;43.67;95878.91;5035051;28;20080;-61
2022/01/27 12:04:04;;;;;;;13.15;8.52;;;;;;;7.51;41.89;95881.13;4992869;28;20614;-62
2022/01/27 12:06:48;;;;;;;9.00;6.90;;;;;;;8.15;39.31;95851.28;5005602;28;20066;-62
2022/01/27 12:09:22;;;;;;;12.32;8.75;;;;;;;9.53;37.44;95867.72;5004264;28;20045;-62
2022/01/27 12:11:50;;;;;;;9.27;7.15;;;;;;;11.73;32.02;95857.78;5011677;28;20069;-62
2022/01/27 12:14:25;;;;;;;8.40;5.50;;;;;;;10.22;33.81;95863.69;5023345;28;20049;-64
2022/01/27 12:17:08;;;;;;;6.40;4.63;;;;;;;8.29;36.00;95863.56;5013539;28;20497;-62
2022/01/27 12:19:51;;;;;;;7.63;5.63;;;;;;;8.47;36.84;95856.88;5019311;28;20029;-62
2022/01/27 12:22:18;;;;;;;10.20;6.40;;;;;;;8.63;36.72;95797.94;5018223;28;20361;-63
2022/01/27 12:24:59;;;;;;;19.30;6.93;;;;;;;7.60;39.13;95845.72;5025337;28;21458;-65
2022/01/27 12:27:26;;;;;;;10.27;6.70;;;;;;;7.83;38.66;95853.38;5020065;28;20069;-62